createdAt,value
2022-12-11T00:00:38.994Z,99434.47
2022-12-11T00:05:42.308Z,99431.00
2022-12-11T00:10:50.364Z,99443.16
2022-12-11T00:15:51.991Z,99431.72
2022-12-11T00:20:53.722Z,99438.44
2022-12-11T00:25:55.395Z,99437.47
2022-12-11T00:30:56.997Z,99439.47
2022-12-11T00:35:58.763Z,99437.38
2022-12-11T00:41:00.397Z,99436.94
2022-12-11T00:46:02.426Z,99429.97
2022-12-11T00:51:04.451Z,99428.81
2022-12-11T00:56:10.721Z,99433.69
2022-12-11T01:01:16.113Z,99437.78
2022-12-11T01:06:21.079Z,99436.09
2022-12-11T01:11:22.655Z,99437.25
2022-12-11T01:16:24.263Z,99438.06
2022-12-11T01:21:26.154Z,99441.38
2022-12-11T01:26:27.885Z,99428.91
2022-12-11T01:31:29.589Z,99423.72
2022-12-11T01:36:31.194Z,99420.00
2022-12-11T01:41:32.991Z,99415.53
2022-12-11T01:46:36.321Z,99416.63
2022-12-11T01:52:01.519Z,99415.75
2022-12-11T01:57:06.706Z,99424.28
2022-12-11T02:02:22.640Z,99423.56
2022-12-11T02:07:24.357Z,99416.50
2022-12-11T02:12:47.694Z,99420.88
2022-12-11T02:18:15.014Z,99415.81
2022-12-11T02:23:32.765Z,99416.56
2022-12-11T02:29:09.946Z,99422.13
2022-12-11T02:34:39.837Z,99421.81
2022-12-11T02:39:44.438Z,99430.44
2022-12-11T02:44:48.816Z,99424.53
2022-12-11T02:49:52.067Z,99424.94
2022-12-11T02:54:58.109Z,99415.88
2022-12-11T02:59:59.960Z,99412.09
2022-12-11T03:05:01.611Z,99409.44
2022-12-11T03:10:06.354Z,99401.72
2022-12-11T03:15:13.961Z,99406.09
2022-12-11T03:20:51.179Z,99411.94
2022-12-11T03:25:59.509Z,99411.69
2022-12-11T03:31:07.680Z,99404.66
2022-12-11T03:36:21.011Z,99405.34
2022-12-11T03:41:25.390Z,99398.97
2022-12-11T03:46:33.470Z,99401.56
2022-12-11T03:51:36.408Z,99404.03
2022-12-11T03:56:40.069Z,99403.44
2022-12-11T04:01:41.707Z,99396.56
2022-12-11T04:06:43.494Z,99398.94
2022-12-11T04:11:45.148Z,99401.56
2022-12-11T04:16:46.840Z,99405.84
2022-12-11T04:22:07.094Z,99410.44
2022-12-11T04:27:08.926Z,99400.06
2022-12-11T04:32:10.559Z,99394.16
2022-12-11T04:37:12.132Z,99392.38
2022-12-11T04:42:13.786Z,99388.91
2022-12-11T04:47:15.383Z,99385.50
2022-12-11T04:52:18.209Z,99390.47
2022-12-11T04:57:21.577Z,99391.97
2022-12-11T05:02:23.308Z,99383.47
2022-12-11T05:07:24.918Z,99385.34
2022-12-11T05:12:26.520Z,99375.09
2022-12-11T05:17:28.125Z,99382.25
2022-12-11T05:22:31.658Z,99371.94
2022-12-11T05:27:33.952Z,99383.59
2022-12-11T05:32:35.662Z,99375.75
2022-12-11T05:37:37.751Z,99364.84
2022-12-11T05:42:39.345Z,99369.97
2022-12-11T05:47:41.025Z,99368.50
2022-12-11T05:52:42.604Z,99371.06
2022-12-11T05:57:44.702Z,99364.31
2022-12-11T06:02:46.437Z,99358.94
2022-12-11T06:07:48.148Z,99345.06
2022-12-11T06:12:49.778Z,99350.06
2022-12-11T06:17:51.383Z,99350.78
2022-12-11T06:22:53.025Z,99349.59
2022-12-11T06:27:55.004Z,99352.22
2022-12-11T06:32:58.885Z,99348.84
2022-12-11T06:38:00.559Z,99344.59
2022-12-11T06:43:02.426Z,99354.00
2022-12-11T06:48:04.589Z,99346.28
2022-12-11T06:53:06.337Z,99356.63
2022-12-11T06:58:08.892Z,99359.94
2022-12-11T07:03:11.116Z,99354.75
2022-12-11T07:08:15.153Z,99361.53
2022-12-11T07:13:16.786Z,99357.38
2022-12-11T07:18:18.429Z,99360.84
2022-12-11T07:23:20.592Z,99353.31
2022-12-11T07:28:22.605Z,99358.50
2022-12-11T07:33:24.320Z,99359.19
2022-12-11T07:38:25.980Z,99360.16
2022-12-11T07:43:28.116Z,99353.25
2022-12-11T07:48:35.996Z,99351.34
2022-12-11T07:53:37.659Z,99357.94
2022-12-11T07:58:39.404Z,99359.53
2022-12-11T08:03:41.005Z,99371.44
2022-12-11T08:08:43.139Z,99374.00
2022-12-11T08:13:44.866Z,99369.09
2022-12-11T08:18:48.239Z,99375.66
2022-12-11T08:23:51.903Z,99372.06
2022-12-11T08:28:54.185Z,99379.72
2022-12-11T08:33:56.869Z,99374.47
2022-12-11T08:38:59.042Z,99381.44
2022-12-11T08:44:01.817Z,99381.66
2022-12-11T08:49:03.586Z,99382.06
2022-12-11T08:54:05.190Z,99384.75
2022-12-11T08:59:06.885Z,99378.19
2022-12-11T09:04:08.490Z,99379.03
2022-12-11T09:09:10.079Z,99368.56
2022-12-11T09:14:11.653Z,99369.34
2022-12-11T09:19:14.475Z,99369.41
2022-12-11T09:24:17.271Z,99365.50
2022-12-11T09:29:18.923Z,99366.97
2022-12-11T09:34:24.804Z,99372.31
2022-12-11T09:39:30.784Z,99372.53
2022-12-11T09:44:54.274Z,99372.31
2022-12-11T09:50:10.466Z,99357.72
2022-12-11T09:55:18.383Z,99359.56
2022-12-11T10:00:32.127Z,99355.81
2022-12-11T10:05:38.397Z,99349.75
2022-12-11T10:10:44.309Z,99348.44
2022-12-11T10:16:04.079Z,99337.88
2022-12-11T10:21:06.207Z,99334.69
2022-12-11T10:26:19.353Z,99339.91
2022-12-11T10:31:41.298Z,99335.56
2022-12-11T10:36:44.095Z,99331.97
2022-12-11T10:41:48.842Z,99334.38
2022-12-11T10:47:15.273Z,99318.53
2022-12-11T10:52:25.923Z,99318.78
2022-12-11T10:57:34.199Z,99317.91
2022-12-11T11:02:38.748Z,99314.34
2022-12-11T11:07:41.033Z,99314.34
2022-12-11T11:12:42.698Z,99319.41
2022-12-11T11:17:55.492Z,99318.31
2022-12-11T11:23:01.805Z,99318.41
2022-12-11T11:28:07.947Z,99305.91
2022-12-11T11:33:17.712Z,99298.84
2022-12-11T11:38:22.895Z,99301.72
2022-12-11T11:43:51.603Z,99291.84
2022-12-11T11:49:04.312Z,99284.63
2022-12-11T11:54:34.802Z,99279.38
2022-12-11T11:59:58.631Z,99281.06
2022-12-11T12:05:00.364Z,99274.28
2022-12-11T12:10:21.573Z,99271.06
2022-12-11T12:15:46.977Z,99269.97
2022-12-11T12:20:53.460Z,99264.44
2022-12-11T12:26:07.099Z,99258.09
2022-12-11T12:31:22.560Z,99252.34
2022-12-11T12:36:42.721Z,99252.22
2022-12-11T12:42:01.353Z,99247.03
2022-12-11T12:47:14.904Z,99243.47
2022-12-11T12:52:33.879Z,99250.00
2022-12-11T12:57:37.161Z,99241.06
2022-12-11T13:02:49.380Z,99246.44
2022-12-11T13:07:55.687Z,99243.97
2022-12-11T13:12:58.276Z,99251.34
2022-12-11T13:18:01.899Z,99247.03
2022-12-11T13:23:06.534Z,99255.44
2022-12-11T13:28:31.335Z,99257.44
2022-12-11T13:33:38.720Z,99258.06
2022-12-11T13:38:49.304Z,99262.22
2022-12-11T13:43:52.345Z,99258.59
2022-12-11T13:49:00.922Z,99260.94
2022-12-11T13:54:17.931Z,99268.00
2022-12-11T13:59:32.347Z,99258.94
2022-12-11T14:04:34.789Z,99276.34
2022-12-11T14:09:43.569Z,99263.31
2022-12-11T14:14:52.066Z,99267.25
2022-12-11T14:19:56.231Z,99260.09
2022-12-11T14:25:03.169Z,99268.22
2022-12-11T14:30:12.499Z,99266.63
2022-12-11T14:35:38.685Z,99270.94
2022-12-11T14:40:44.429Z,99274.31
2022-12-11T14:45:49.849Z,99285.34
2022-12-11T14:50:58.441Z,99289.72
2022-12-11T14:56:04.812Z,99287.97
2022-12-11T15:01:20.907Z,99299.16
2022-12-11T15:06:30.820Z,99288.66
2022-12-11T15:11:32.894Z,99290.16
2022-12-11T15:16:38.278Z,99295.50
2022-12-11T15:21:40.034Z,99293.28
2022-12-11T15:26:46.132Z,99297.59
2022-12-11T15:31:58.436Z,99301.16
2022-12-11T15:37:00.020Z,99306.56
2022-12-11T15:42:02.533Z,99310.94
2022-12-11T15:47:15.536Z,99307.22
2022-12-11T15:52:18.475Z,99307.31
2022-12-11T15:57:23.913Z,99307.56
2022-12-11T16:02:28.003Z,99298.97
2022-12-11T16:07:29.875Z,99310.25
2022-12-11T16:12:31.566Z,99306.97
2022-12-11T16:17:33.195Z,99304.75
2022-12-11T16:22:34.834Z,99307.72
2022-12-11T16:27:36.571Z,99310.53
2022-12-11T16:32:38.235Z,99312.06
2022-12-11T16:37:39.895Z,99294.91
2022-12-11T16:42:41.599Z,99294.16
2022-12-11T16:47:43.401Z,99294.06
2022-12-11T16:52:45.686Z,99293.75
2022-12-11T16:57:47.407Z,99294.44
2022-12-11T17:02:49.114Z,99292.78
2022-12-11T17:07:52.308Z,99293.72
2022-12-11T17:12:54.122Z,99293.66
2022-12-11T17:17:55.864Z,99293.78
2022-12-11T17:22:57.511Z,99297.81
2022-12-11T17:27:59.193Z,99289.59
2022-12-11T17:33:02.849Z,99294.56
2022-12-11T17:38:05.033Z,99299.69
2022-12-11T17:43:10.437Z,99294.06
2022-12-11T17:48:12.540Z,99298.00
2022-12-11T17:53:16.848Z,99294.53
2022-12-11T17:58:22.049Z,99296.06
2022-12-11T18:03:25.419Z,99289.06
2022-12-11T18:08:30.145Z,99289.84
2022-12-11T18:13:32.626Z,99293.31
2022-12-11T18:18:34.853Z,99296.84
2022-12-11T18:23:36.492Z,99294.25
2022-12-11T18:28:38.227Z,99301.41
2022-12-11T18:33:42.139Z,99296.44
2022-12-11T18:38:44.199Z,99295.28
2022-12-11T18:43:45.977Z,99290.88
2022-12-11T18:48:57.191Z,99289.75
2022-12-11T18:54:00.216Z,99290.47
2022-12-11T18:59:05.706Z,99295.25
2022-12-11T19:04:10.954Z,99298.16
2022-12-11T19:09:13.816Z,99292.69
2022-12-11T19:14:15.765Z,99295.47
2022-12-11T19:19:19.928Z,99287.97
2022-12-11T19:24:24.947Z,99283.88
2022-12-11T19:29:33.762Z,99284.50
2022-12-11T19:34:35.536Z,99284.19
2022-12-11T19:39:41.046Z,99285.91
2022-12-11T19:44:43.522Z,99296.50
2022-12-11T19:49:45.719Z,99297.47
2022-12-11T19:54:47.318Z,99294.72
2022-12-11T19:59:56.962Z,99294.53
2022-12-11T20:04:59.386Z,99295.34
2022-12-11T20:10:01.149Z,99289.28
2022-12-11T20:15:05.113Z,99279.41
2022-12-11T20:20:07.219Z,99284.78
2022-12-11T20:25:09.732Z,99280.75
2022-12-11T20:30:12.517Z,99275.03
2022-12-11T20:35:14.444Z,99284.03
2022-12-11T20:40:17.048Z,99290.41
2022-12-11T20:45:18.698Z,99296.41
2022-12-11T20:50:20.285Z,99295.78
2022-12-11T20:55:21.874Z,99295.69
2022-12-11T21:00:23.600Z,99302.16
2022-12-11T21:05:25.188Z,99295.66
2022-12-11T21:10:26.774Z,99298.75
2022-12-11T21:15:28.720Z,99294.97
2022-12-11T21:20:30.324Z,99290.56
2022-12-11T21:25:31.939Z,99298.88
2022-12-11T21:30:33.632Z,99299.06
2022-12-11T21:35:35.295Z,99301.66
2022-12-11T21:40:36.920Z,99300.69
2022-12-11T21:46:00.393Z,99299.13
2022-12-11T21:51:12.396Z,99302.00
2022-12-11T21:56:20.719Z,99298.69
2022-12-11T22:01:30.724Z,99304.50
2022-12-11T22:06:32.539Z,99306.06
2022-12-11T22:11:35.346Z,99306.00
2022-12-11T22:16:36.991Z,99308.38
2022-12-11T22:21:38.658Z,99309.97
2022-12-11T22:26:40.511Z,99313.16
2022-12-11T22:31:42.173Z,99324.13
2022-12-11T22:36:43.817Z,99314.56
2022-12-11T22:41:45.566Z,99317.19
2022-12-11T22:46:50.293Z,99317.28
2022-12-11T22:51:52.393Z,99323.34
2022-12-11T22:56:54.001Z,99320.16
2022-12-11T23:01:55.652Z,99313.41
2022-12-11T23:06:57.528Z,99313.22
2022-12-11T23:11:59.157Z,99313.06
2022-12-11T23:17:00.777Z,99312.97
2022-12-11T23:22:03.102Z,99314.66
2022-12-11T23:27:05.090Z,99318.00
2022-12-11T23:32:06.737Z,99319.66
2022-12-11T23:37:08.682Z,99316.25
2022-12-11T23:42:10.286Z,99316.34
2022-12-11T23:47:11.977Z,99319.72
2022-12-11T23:52:13.657Z,99318.88
2022-12-11T23:57:15.248Z,99321.38
